Lake Emily, Wisconsin
Current Conditions -  °F | °C
As of 4:55 AM on Friday 28 Nov 2014 (Local Time) from KSTE Reporting Station
Light Snow Light Snow  
Wind Chill:   Ceiling: 8500
Heat Index:   Visibility: 10mi
Dew Point:   Wind: 0mph
Humidity: 89%   Direction: NA
Pressure: 30.22"   Gusts: NA
Location:  44.5312°N, 89.2955°W
Report Text: KSTE 281055Z AUTO 00000KT 10SM -SN SCT043 SCT049 OVC085 M15/M16 A3022 RMK AO2 T11501165
Loading
Personal Weather Stations






























Interactive Weather Map New forecast layout! Learn more

10-Day Weather Forecast

Advertisements
Track Severe Weather on mobile